Time;durP1;ratioP1;P1;durP2;ratioP2;P2;SDS_P1;SDS_P2;PMS_P1;PMS_P2;Temp;Humidity;BMP_temperature;BMP_pressure;BME280_temperature;BME280_humidity;BME280_pressure;Samples;Min_cycle;Max_cycle;Signal;HPM_P1;HPM_P2
2023/03/26 00:01:04;;;;;;;9.27;8.27;;;;;;;14.45;100.00;99479.84;5030527;28;20442;-70
2023/03/26 00:03:32;;;;;;;8.60;7.78;;;;;;;14.55;100.00;99481.03;5030813;28;20065;-69
2023/03/26 00:06:06;;;;;;;9.30;8.35;;;;;;;14.32;100.00;99453.25;5030456;28;20055;-70
2023/03/26 00:08:33;;;;;;;9.07;8.18;;;;;;;14.42;100.00;99468.03;5030469;28;20038;-68
2023/03/26 00:10:59;;;;;;;8.82;7.93;;;;;;;14.06;100.00;99446.91;5030634;28;20041;-72
2023/03/26 00:13:25;;;;;;;9.27;8.38;;;;;;;13.94;100.00;99422.75;5029975;28;20239;-69
2023/03/26 00:15:51;;;;;;;8.50;7.70;;;;;;;14.24;100.00;99461.28;5029347;28;20064;-70
2023/03/26 00:18:18;;;;;;;9.77;8.00;;;;;;;14.25;100.00;99493.63;5030599;28;20017;-70
2023/03/26 00:20:44;;;;;;;9.48;8.07;;;;;;;14.15;100.00;99441.31;5030672;28;20029;-69
2023/03/26 00:23:10;;;;;;;8.25;7.50;;;;;;;13.91;100.00;99432.31;5030626;28;20041;-70
2023/03/26 00:25:38;;;;;;;9.15;8.05;;;;;;;14.09;100.00;99430.56;5030448;28;20052;-69
2023/03/26 00:28:05;;;;;;;10.60;7.88;;;;;;;14.18;100.00;99435.22;5030291;28;20452;-69
2023/03/26 00:30:32;;;;;;;8.55;7.75;;;;;;;14.16;100.00;99421.69;5030410;28;20025;-73
2023/03/26 00:32:58;;;;;;;8.35;7.47;;;;;;;14.29;100.00;99469.59;5030509;28;20032;-69
2023/03/26 00:35:23;;;;;;;8.93;8.02;;;;;;;14.27;100.00;99456.00;5030481;28;20121;-69
2023/03/26 00:37:50;;;;;;;7.90;7.15;;;;;;;14.18;100.00;99458.22;5030342;28;20040;-69
2023/03/26 00:40:15;;;;;;;8.73;7.65;;;;;;;14.11;100.00;99421.91;5030282;28;20057;-70
2023/03/26 00:42:41;;;;;;;7.80;7.05;;;;;;;14.31;100.00;99474.59;5030213;28;20057;-69
2023/03/26 00:45:07;;;;;;;8.48;7.68;;;;;;;14.52;100.00;99482.00;5030076;28;20587;-69
2023/03/26 00:47:33;;;;;;;8.85;8.05;;;;;;;14.00;100.00;99436.16;5028770;28;20021;-69
2023/03/26 00:49:59;;;;;;;9.15;8.13;;;;;;;14.05;100.00;99468.22;5028937;28;20036;-69
2023/03/26 00:52:27;;;;;;;9.02;8.02;;;;;;;14.48;100.00;99490.72;5029827;28;20404;-69
2023/03/26 00:54:53;;;;;;;8.65;7.78;;;;;;;14.04;100.00;99493.88;5030019;28;20037;-68
2023/03/26 00:57:20;;;;;;;9.45;8.48;;;;;;;14.33;100.00;99512.00;5029930;28;20033;-69
2023/03/26 00:59:47;;;;;;;9.38;8.48;;;;;;;13.62;100.00;99427.84;5029973;28;20418;-69
2023/03/26 01:02:15;;;;;;;10.18;8.85;;;;;;;14.06;100.00;99486.97;5029913;28;20034;-70
2023/03/26 01:04:46;;;;;;;8.85;8.00;;;;;;;13.72;100.00;99475.84;5028680;28;20120;-69
2023/03/26 01:07:20;;;;;;;8.38;7.35;;;;;;;13.76;100.00;99479.91;5030569;28;20048;-68
2023/03/26 01:09:50;;;;;;;7.25;6.32;;;;;;;14.06;100.00;99503.13;5030093;28;20033;-69
2023/03/26 01:12:21;;;;;;;6.82;6.13;;;;;;;14.26;100.00;99523.38;5029989;28;20025;-69
2023/03/26 01:14:49;;;;;;;6.85;6.15;;;;;;;14.02;100.00;99527.19;5029996;28;20116;-68
2023/03/26 01:17:16;;;;;;;6.78;5.90;;;;;;;14.46;100.00;99563.38;5029779;28;20065;-70
2023/03/26 01:20:11;;;;;;;6.32;5.72;;;;;;;14.39;100.00;99567.94;5028448;28;20124;-69
2023/03/26 01:22:40;;;;;;;5.97;5.38;;;;;;;14.35;100.00;99597.13;5030229;28;20038;-69
2023/03/26 01:25:08;;;;;;;5.43;4.93;;;;;;;14.17;100.00;99580.09;5030683;28;20033;-69
2023/03/26 01:27:37;;;;;;;5.30;4.80;;;;;;;14.36;100.00;99632.03;5033358;28;20041;-69
2023/03/26 01:30:15;;;;;;;5.07;4.63;;;;;;;14.35;100.00;99645.72;5033739;28;20124;-69
2023/03/26 01:32:51;;;;;;;4.57;4.18;;;;;;;14.10;100.00;99655.44;5033560;28;20116;-68
2023/03/26 01:35:44;;;;;;;5.65;4.10;;;;;;;14.17;100.00;99673.88;5033592;28;20032;-69
2023/03/26 01:38:21;;;;;;;5.03;4.40;;;;;;;13.71;100.00;99624.91;5022386;28;20088;-69
2023/03/26 01:41:08;;;;;;;5.65;4.53;;;;;;;13.98;100.00;99679.03;5033333;28;20048;-69
2023/03/26 01:43:43;;;;;;;5.70;4.38;;;;;;;14.00;100.00;99701.97;5033692;28;20041;-71
2023/03/26 01:46:11;;;;;;;4.40;4.00;;;;;;;13.58;100.00;99662.16;5031808;28;20033;-70
2023/03/26 01:48:40;;;;;;;4.55;4.15;;;;;;;13.57;100.00;99663.03;5032857;28;20041;-69
2023/03/26 01:51:08;;;;;;;6.00;4.22;;;;;;;13.42;100.00;99643.28;5033305;28;20034;-72
2023/03/26 01:53:39;;;;;;;4.35;3.92;;;;;;;13.67;100.00;99719.63;5032767;28;20025;-70
2023/03/26 01:56:42;;;;;;;4.00;3.60;;;;;;;13.92;100.00;99740.66;5033111;28;20053;-68
2023/03/26 01:59:22;;;;;;;5.20;4.13;;;;;;;13.99;100.00;99753.97;5032799;28;20033;-70
2023/03/26 02:01:47;;;;;;;4.78;3.47;;;;;;;14.08;100.00;99767.19;5031415;28;20037;-69
2023/03/26 02:04:33;;;;;;;4.07;3.53;;;;;;;14.10;100.00;99783.28;5033178;28;20029;-69
2023/03/26 02:07:12;;;;;;;4.13;3.65;;;;;;;14.25;100.00;99764.66;5030999;28;20054;-69
2023/03/26 02:09:48;;;;;;;4.10;3.33;;;;;;;13.89;100.00;99728.84;5032804;28;20117;-72
2023/03/26 02:12:15;;;;;;;4.38;3.35;;;;;;;14.40;100.00;99804.09;5031547;28;20037;-70
2023/03/26 02:14:41;;;;;;;4.63;3.80;;;;;;;14.06;100.00;99763.84;5030920;28;20041;-69
2023/03/26 02:17:08;;;;;;;4.20;3.80;;;;;;;14.17;100.00;99811.94;5032801;28;20026;-69
2023/03/26 02:19:34;;;;;;;3.97;3.58;;;;;;;14.19;100.00;99805.84;5032541;28;20500;-69
2023/03/26 02:22:00;;;;;;;4.47;4.05;;;;;;;13.97;100.00;99776.19;5032301;28;20120;-69
2023/03/26 02:24:26;;;;;;;4.28;3.88;;;;;;;14.21;100.00;99829.63;5030994;28;20032;-69
2023/03/26 02:26:51;;;;;;;6.65;4.22;;;;;;;13.96;100.00;99789.91;5032404;28;20380;-69
2023/03/26 02:29:19;;;;;;;4.50;4.10;;;;;;;14.07;100.00;99805.56;5031112;28;20521;-71
2023/03/26 02:31:48;;;;;;;5.07;4.00;;;;;;;14.30;100.00;99833.53;5032257;28;20022;-69
2023/03/26 02:34:14;;;;;;;4.15;3.58;;;;;;;14.08;100.00;99795.28;5032157;28;20412;-69
2023/03/26 02:36:46;;;;;;;4.53;3.58;;;;;;;14.39;100.00;99851.00;5031811;28;20062;-69
2023/03/26 02:39:13;;;;;;;3.80;3.50;;;;;;;14.42;100.00;99866.22;5031114;28;20021;-70
2023/03/26 02:41:39;;;;;;;4.45;3.13;;;;;;;14.25;100.00;99868.66;5031491;28;20030;-69
2023/03/26 02:44:04;;;;;;;3.70;3.25;;;;;;;13.92;100.00;99846.25;5031669;28;20025;-69
2023/03/26 02:46:31;;;;;;;3.65;2.90;;;;;;;14.21;100.00;99898.66;5031689;28;20037;-70
2023/03/26 02:48:57;;;;;;;4.05;3.03;;;;;;;14.14;100.00;99888.78;5030167;28;20490;-69
2023/03/26 02:51:24;;;;;;;4.95;3.00;;;;;;;14.10;100.00;99905.16;5031691;28;20030;-69
2023/03/26 02:53:50;;;;;;;3.15;2.85;;;;;;;13.78;100.00;99896.31;5030361;28;20035;-69
2023/03/26 02:56:15;;;;;;;3.47;2.88;;;;;;;14.11;100.00;99991.16;5031691;28;20404;-69
2023/03/26 02:58:40;;;;;;;2.75;2.47;;;;;;;14.09;100.00;99998.06;5031350;28;20030;-73
2023/03/26 03:01:06;;;;;;;3.17;2.50;;;;;;;14.17;100.00;99991.75;5031907;28;20044;-69
2023/03/26 03:03:33;;;;;;;3.47;2.60;;;;;;;13.88;100.00;99952.06;5031745;28;20112;-68
2023/03/26 03:05:58;;;;;;;15.63;3.70;;;;;;;13.74;100.00;100020.81;5031646;28;20567;-69
2023/03/26 03:08:26;;;;;;;10.10;3.72;;;;;;;13.21;100.00;100003.38;5031293;28;20124;-69
2023/03/26 03:10:57;;;;;;;7.88;3.97;;;;;;;12.67;100.00;99897.38;5031308;28;20026;-69
2023/03/26 03:13:22;;;;;;;6.05;3.55;;;;;;;12.93;100.00;99949.97;5030191;28;20022;-69
2023/03/26 03:15:48;;;;;;;4.55;3.33;;;;;;;12.38;100.00;99914.63;5031263;28;20052;-69
2023/03/26 03:18:13;;;;;;;5.55;3.38;;;;;;;12.82;100.00;99977.56;5029898;28;20017;-70
2023/03/26 03:20:39;;;;;;;7.65;4.03;;;;;;;12.59;100.00;99949.53;5031685;28;20048;-69
2023/03/26 03:23:04;;;;;;;5.78;3.97;;;;;;;12.70;100.00;99972.91;5031312;28;20147;-69
2023/03/26 03:25:31;;;;;;;5.53;3.90;;;;;;;12.73;100.00;99963.47;5029444;28;20451;-69
2023/03/26 03:27:57;;;;;;;4.53;3.78;;;;;;;12.32;100.00;99918.22;5031061;28;20460;-68
2023/03/26 03:30:23;;;;;;;5.38;3.65;;;;;;;12.80;100.00;99951.28;5031606;28;20448;-68
2023/03/26 03:32:49;;;;;;;9.40;3.20;;;;;;;12.57;100.00;99892.66;5031173;28;20025;-69
2023/03/26 03:35:14;;;;;;;4.68;3.40;;;;;;;12.93;100.00;99906.59;5031097;28;20033;-69
2023/03/26 03:37:40;;;;;;;3.75;3.35;;;;;;;12.85;100.00;99862.66;5031012;28;20037;-68
2023/03/26 03:40:07;;;;;;;3.70;3.30;;;;;;;12.88;100.00;99900.81;5030894;28;20110;-68
2023/03/26 03:42:32;;;;;;;4.25;3.00;;;;;;;12.96;100.00;99898.78;5031276;28;20040;-69
2023/03/26 03:44:58;;;;;;;5.00;3.08;;;;;;;12.98;100.00;99879.97;5030292;28;20053;-69
2023/03/26 03:47:23;;;;;;;4.10;3.08;;;;;;;12.56;100.00;99822.97;5029334;28;20030;-68
2023/03/26 03:49:49;;;;;;;3.33;2.80;;;;;;;12.72;100.00;99849.53;5029982;28;20381;-67
2023/03/26 03:52:15;;;;;;;3.30;2.90;;;;;;;12.82;100.00;99850.00;5029737;28;20533;-75
2023/03/26 03:54:40;;;;;;;3.15;2.72;;;;;;;12.52;100.00;99811.22;5030376;28;20033;-70
2023/03/26 03:57:06;;;;;;;3.50;3.10;;;;;;;12.27;100.00;99784.19;5030823;28;20112;-67
2023/03/26 03:59:31;;;;;;;3.63;3.33;;;;;;;13.00;100.00;99874.81;5030202;28;20044;-67
2023/03/26 04:01:56;;;;;;;4.55;3.58;;;;;;;12.57;100.00;99826.38;5028873;28;20044;-68
2023/03/26 04:04:23;;;;;;;6.22;4.65;;;;;;;13.26;100.00;99882.31;5029049;28;20416;-69
2023/03/26 04:06:50;;;;;;;10.55;7.10;;;;;;;12.99;100.00;99850.19;5029421;28;20049;-69
2023/03/26 04:09:15;;;;;;;3.95;3.42;;;;;;;12.72;100.00;99815.56;5030411;28;20025;-71
2023/03/26 04:11:41;;;;;;;3.17;2.85;;;;;;;13.18;100.00;99886.88;5030646;28;20032;-68
2023/03/26 04:14:06;;;;;;;5.70;4.57;;;;;;;13.37;100.00;99915.88;5030292;28;20638;-68
2023/03/26 04:16:32;;;;;;;4.13;3.63;;;;;;;13.13;100.00;99855.63;5029965;28;20030;-69
2023/03/26 04:19:01;;;;;;;3.65;2.90;;;;;;;13.35;100.00;99938.09;5028449;28;20117;-69
2023/03/26 04:21:29;;;;;;;3.90;3.38;;;;;;;13.19;100.00;99911.53;5027966;28;20041;-69
2023/03/26 04:23:55;;;;;;;3.08;2.50;;;;;;;13.29;100.00;99952.84;5030280;28;20025;-69
2023/03/26 04:26:21;;;;;;;3.25;2.17;;;;;;;13.32;100.00;99945.88;5028658;28;20419;-69
2023/03/26 04:28:49;;;;;;;4.05;1.80;;;;;;;13.41;100.00;99960.81;5028975;28;20029;-72
2023/03/26 04:31:17;;;;;;;3.03;1.90;;;;;;;13.32;100.00;99963.75;5030182;28;20116;-68
2023/03/26 04:33:46;;;;;;;2.08;1.88;;;;;;;13.15;100.00;99945.72;5030284;28;20036;-69
2023/03/26 04:36:14;;;;;;;1.92;1.42;;;;;;;13.43;100.00;99982.03;5030459;28;20040;-69
2023/03/26 04:38:43;;;;;;;1.63;1.40;;;;;;;13.12;100.00;99939.88;5030141;28;20575;-68
2023/03/26 04:41:13;;;;;;;2.33;1.83;;;;;;;13.17;100.00;99955.88;5028841;28;20087;-68
2023/03/26 04:43:46;;;;;;;1.33;1.02;;;;;;;13.42;100.00;100034.00;5030144;28;20034;-69
2023/03/26 04:46:20;;;;;;;1.63;1.40;;;;;;;13.15;100.00;100001.88;5030524;28;20033;-69
2023/03/26 04:48:46;;;;;;;1.95;1.42;;;;;;;13.03;100.00;99967.41;5028876;28;20039;-69
2023/03/26 04:51:17;;;;;;;1.48;1.35;;;;;;;13.39;100.00;100046.06;5030121;28;20091;-69
2023/03/26 04:54:04;;;;;;;2.65;1.77;;;;;;;13.30;100.00;100041.31;5028778;28;20128;-68
2023/03/26 04:56:55;;;;;;;1.90;1.70;;;;;;;13.27;100.00;100047.34;5029888;28;20121;-69
2023/03/26 04:59:33;;;;;;;2.42;1.50;;;;;;;13.32;100.00;100039.53;5030040;28;20025;-69
2023/03/26 05:02:00;;;;;;;6.28;4.03;;;;;;;12.90;100.00;100007.03;5034113;28;20026;-69
2023/03/26 05:04:28;;;;;;;2.63;2.05;;;;;;;13.15;100.00;100069.97;5034138;28;20036;-69
2023/03/26 05:06:56;;;;;;;5.13;2.38;;;;;;;12.99;100.00;100019.44;5034074;28;20046;-70
2023/03/26 05:09:22;;;;;;;3.47;2.40;;;;;;;12.90;100.00;100011.28;5033739;28;20026;-69
2023/03/26 05:11:49;;;;;;;3.00;2.30;;;;;;;13.29;100.00;100067.75;5033404;28;20422;-68
2023/03/26 05:14:15;;;;;;;17.80;10.52;;;;;;;13.37;100.00;100097.19;5032539;28;20033;-69
2023/03/26 05:16:41;;;;;;;8.02;6.05;;;;;;;12.83;100.00;99999.66;5033535;28;20040;-69
2023/03/26 05:19:07;;;;;;;10.43;7.10;;;;;;;13.01;100.00;100050.03;5033330;28;20124;-69
2023/03/26 05:21:33;;;;;;;4.85;2.40;;;;;;;13.41;100.00;100093.63;5033803;28;20029;-67
2023/03/26 05:23:59;;;;;;;5.50;3.78;;;;;;;13.24;100.00;100067.91;5033460;28;20038;-68
2023/03/26 05:26:25;;;;;;;31.70;18.90;;;;;;;13.12;100.00;100050.47;5033264;28;20462;-69
2023/03/26 05:28:50;;;;;;;9.82;7.88;;;;;;;13.25;100.00;100102.75;5033757;28;20040;-69
2023/03/26 05:31:22;;;;;;;11.85;8.82;;;;;;;13.07;100.00;100072.81;5032413;28;20034;-68
2023/03/26 05:33:47;;;;;;;;;;;;;;;13.38;100.00;100126.94;5033988;28;20033;-68
2023/03/26 05:36:14;;;;;;;22.58;10.90;;;;;;;13.64;100.00;100129.38;5033453;28;20070;-68
2023/03/26 05:38:42;;;;;;;5.30;4.13;;;;;;;13.39;100.00;100099.69;5033210;28;20095;-69
2023/03/26 05:41:09;;;;;;;15.35;10.35;;;;;;;13.48;100.00;100128.28;5033273;28;20028;-68
2023/03/26 05:43:35;;;;;;;12.07;10.73;;;;;;;13.42;100.00;100137.88;5033352;28;20030;-68
2023/03/26 05:46:00;;;;;;;6.28;5.07;;;;;;;13.35;100.00;100144.94;5033275;28;20042;-68
2023/03/26 05:48:26;;;;;;;4.05;2.90;;;;;;;13.34;100.00;100134.78;5032881;28;20036;-70
2023/03/26 05:50:54;;;;;;;3.13;2.00;;;;;;;13.15;100.00;100124.41;5032959;28;20511;-68
2023/03/26 05:53:25;;;;;;;3.13;2.47;;;;;;;13.49;100.00;100172.53;5032063;28;20512;-70
2023/03/26 05:55:57;;;;;;;2.58;1.90;;;;;;;13.08;100.00;100107.63;5031368;28;20094;-68
2023/03/26 05:58:28;;;;;;;4.03;2.10;;;;;;;13.45;100.00;100174.34;5033030;28;20086;-72
2023/03/26 06:01:07;;;;;;;1.73;1.50;;;;;;;13.41;100.00;100152.38;5033803;28;20203;-71
2023/03/26 06:03:34;;;;;;;4.75;1.50;;;;;;;13.73;100.00;100197.16;5029881;28;20036;-69
2023/03/26 06:06:00;;;;;;;3.25;2.55;;;;;;;13.27;100.00;100106.06;5032525;28;20060;-68
2023/03/26 06:08:25;;;;;;;2.42;1.30;;;;;;;13.39;100.00;100138.00;5032410;28;20484;-69
2023/03/26 06:10:58;;;;;;;4.93;2.45;;;;;;;13.78;100.00;100188.44;5032776;28;20033;-69
2023/03/26 06:13:23;;;;;;;4.05;1.73;;;;;;;13.90;100.00;100218.63;5030354;28;20036;-68
2023/03/26 06:15:49;;;;;;;1.98;1.50;;;;;;;13.90;100.00;100199.94;5032574;28;20029;-69
2023/03/26 06:18:14;;;;;;;3.38;1.92;;;;;;;14.24;100.00;100179.00;5031137;28;20116;-69
2023/03/26 06:20:40;;;;;;;3.75;1.50;;;;;;;15.02;100.00;100214.16;5032419;28;20040;-65
2023/03/26 06:23:06;;;;;;;3.20;1.58;;;;;;;14.52;100.00;100211.09;5032051;28;20116;-69
2023/03/26 06:25:31;;;;;;;2.05;1.40;;;;;;;15.23;100.00;100210.66;5032343;28;20471;-67
2023/03/26 06:27:57;;;;;;;2.78;2.20;;;;;;;15.20;100.00;100207.41;5031786;28;20112;-69
2023/03/26 06:30:22;;;;;;;3.20;1.80;;;;;;;15.91;100.00;100217.03;5031991;28;20025;-69
2023/03/26 06:32:47;;;;;;;3.10;1.45;;;;;;;15.66;100.00;100212.22;5031899;28;20033;-69
2023/03/26 06:35:13;;;;;;;2.42;1.40;;;;;;;15.72;100.00;100177.78;5031793;28;20091;-69
2023/03/26 06:37:38;;;;;;;1.85;1.50;;;;;;;16.05;100.00;100182.16;5031994;28;20120;-69
2023/03/26 06:40:04;;;;;;;3.25;1.67;;;;;;;16.27;100.00;100181.97;5030818;28;20021;-68
2023/03/26 06:42:30;;;;;;;2.45;1.48;;;;;;;16.66;100.00;100221.13;5030062;28;20045;-69
2023/03/26 06:44:55;;;;;;;1.35;1.13;;;;;;;15.65;100.00;100223.34;5032002;28;20037;-69
2023/03/26 06:47:21;;;;;;;2.63;1.40;;;;;;;16.27;100.00;100233.28;5032173;28;20116;-69
2023/03/26 06:49:46;;;;;;;2.90;1.70;;;;;;;16.57;100.00;100219.03;5029856;28;20040;-70
2023/03/26 06:52:12;;;;;;;4.15;1.48;;;;;;;16.46;100.00;100213.53;5030619;28;20033;-70
2023/03/26 06:54:37;;;;;;;3.30;1.60;;;;;;;16.84;100.00;100230.50;5030534;28;20495;-71
2023/03/26 06:57:03;;;;;;;3.35;1.42;;;;;;;16.82;100.00;100204.06;5032266;28;20025;-71
2023/03/26 06:59:28;;;;;;;2.72;1.40;;;;;;;16.63;100.00;100228.16;5032187;28;20037;-70
2023/03/26 07:01:54;;;;;;;2.38;1.40;;;;;;;16.52;100.00;100191.94;5031836;28;20044;-69
2023/03/26 07:04:19;;;;;;;2.90;1.70;;;;;;;16.98;100.00;100232.38;5030124;28;20026;-70
2023/03/26 07:06:44;;;;;;;2.97;1.70;;;;;;;16.27;100.00;100172.56;5030267;28;20060;-70
2023/03/26 07:09:10;;;;;;;4.78;2.00;;;;;;;16.36;100.00;100184.13;5031771;28;20562;-69
2023/03/26 07:11:35;;;;;;;3.78;1.30;;;;;;;16.83;100.00;100163.81;5032063;28;20025;-69
2023/03/26 07:14:01;;;;;;;1.95;1.40;;;;;;;17.12;100.00;100212.81;5031289;28;20026;-69
2023/03/26 07:16:26;;;;;;;3.58;1.48;;;;;;;17.42;100.00;100194.13;5031032;28;20056;-69
2023/03/26 07:18:54;;;;;;;2.65;1.30;;;;;;;16.91;100.00;100175.38;5030752;28;20072;-69
2023/03/26 07:21:20;;;;;;;4.65;1.60;;;;;;;16.74;100.00;100147.13;5031525;28;20071;-69
2023/03/26 07:23:46;;;;;;;2.75;1.80;;;;;;;16.58;100.00;100091.53;5031102;28;20124;-69
2023/03/26 07:26:26;;;;;;;2.78;1.52;;;;;;;17.40;100.00;100121.41;5030173;28;20029;-70
2023/03/26 07:29:05;;;;;;;2.45;1.63;;;;;;;17.01;100.00;100029.31;5029903;28;20071;-70
2023/03/26 07:31:50;;;;;;;3.35;1.67;;;;;;;17.40;100.00;99913.22;5031063;28;20068;-70
2023/03/26 07:34:57;;;;;;;2.53;1.58;;;;;;;17.53;100.00;99778.75;5031151;28;20029;-70
2023/03/26 07:37:50;;;;;;;4.45;1.60;;;;;;;17.25;100.00;99544.91;5026519;28;20056;-69
2023/03/26 07:40:47;;;;;;;4.43;1.70;;;;;;;17.63;100.00;99411.41;5029584;28;20025;-70
2023/03/26 07:43:32;;;;;;;2.85;1.48;;;;;;;18.46;100.00;99295.03;5029462;28;20033;-69
2023/03/26 07:45:58;;;;;;;3.50;1.50;;;;;;;17.93;100.00;98947.22;5030680;28;20021;-70
2023/03/26 07:48:26;;;;;;;2.00;1.40;;;;;;;18.02;100.00;98743.34;5029203;28;20026;-70
2023/03/26 07:50:55;;;;;;;4.28;1.40;;;;;;;17.72;100.00;98420.97;5028895;28;20029;-69
2023/03/26 07:53:22;;;;;;;3.47;1.52;;;;;;;17.71;100.00;98131.44;5030633;28;20156;-69
2023/03/26 07:56:13;;;;;;;1.77;1.30;;;;;;;18.58;100.00;97932.38;5030590;28;20068;-69
2023/03/26 07:58:42;;;;;;;1.77;1.40;;;;;;;17.68;100.00;96253.44;5027062;28;20045;-69
2023/03/26 08:01:17;;;;;;;3.72;1.50;;;;;;;17.30;100.00;96198.78;5030293;28;20029;-70
2023/03/26 08:04:09;;;;;;;3.33;1.50;;;;;;;17.97;100.00;96186.56;5029859;28;20492;-69
2023/03/26 08:06:36;;;;;;;1.77;1.27;;;;;;;18.27;100.00;96166.69;5030636;28;20488;-69
2023/03/26 08:09:04;;;;;;;4.68;1.50;;;;;;;19.12;100.00;96120.97;5030714;28;20488;-74
2023/03/26 08:11:55;;;;;;;2.28;1.30;;;;;;;18.39;100.00;96230.31;5030401;28;20029;-70
2023/03/26 08:14:30;;;;;;;2.63;1.40;;;;;;;18.78;100.00;96273.63;5030869;28;20052;-69
2023/03/26 08:17:15;;;;;;;2.38;1.25;;;;;;;18.47;100.00;96312.53;5030494;28;20144;-70
2023/03/26 08:19:47;;;;;;;2.60;1.27;;;;;;;18.92;100.00;96470.94;5030236;28;20029;-70
2023/03/26 08:22:25;;;;;;;2.88;1.90;;;;;;;18.46;100.00;96531.34;5030498;28;20142;-69
2023/03/26 08:25:02;;;;;;;2.78;1.35;;;;;;;18.25;100.00;96745.41;5029108;28;20048;-70
2023/03/26 08:27:42;;;;;;;1.83;1.27;;;;;;;18.20;100.00;96732.28;5030674;28;20503;-70
2023/03/26 08:30:20;;;;;;;3.63;1.75;;;;;;;18.82;100.00;96780.09;5030284;28;20032;-69
2023/03/26 08:32:55;;;;;;;3.08;1.50;;;;;;;19.27;100.00;96819.66;5029093;28;20075;-71
2023/03/26 08:35:21;;;;;;;3.67;1.00;;;;;;;18.71;100.00;96991.56;5031936;28;20037;-70
2023/03/26 08:37:47;;;;;;;3.88;1.98;;;;;;;18.69;100.00;97111.88;5034297;28;20070;-70
2023/03/26 08:40:26;;;;;;;2.55;2.17;;;;;;;19.29;100.00;97217.00;5033176;28;20396;-70
2023/03/26 08:43:29;;;;;;;1.40;1.30;;;;;;;18.87;100.00;97488.38;5034008;28;20135;-70
2023/03/26 08:46:21;;;;;;;3.58;2.38;;;;;;;19.83;100.00;97742.22;5034621;28;20037;-69
2023/03/26 08:49:18;;;;;;;2.53;1.98;;;;;;;19.85;100.00;97887.28;5034218;28;20069;-69
2023/03/26 08:52:03;;;;;;;2.67;1.25;;;;;;;19.33;100.00;97999.81;5012385;28;20566;-69
2023/03/26 08:54:47;;;;;;;2.38;1.20;;;;;;;19.40;100.00;98137.47;5034465;28;20037;-69
2023/03/26 08:57:40;;;;;;;4.18;1.55;;;;;;;19.77;100.00;98215.56;5034284;28;20032;-70
2023/03/26 09:00:38;;;;;;;1.85;1.10;;;;;;;20.01;100.00;98299.34;5033903;28;20040;-70
2023/03/26 09:03:27;;;;;;;1.63;1.02;;;;;;;20.71;100.00;98367.47;5023732;28;20098;-69
2023/03/26 09:06:15;;;;;;;3.00;1.70;;;;;;;20.42;100.00;98418.44;5034261;28;20128;-69
2023/03/26 09:09:07;;;;;;;3.13;1.10;;;;;;;20.38;100.00;98493.78;5034188;28;20026;-68
2023/03/26 09:11:59;;;;;;;5.70;1.20;;;;;;;19.96;100.00;98477.00;5032345;28;20057;-69
2023/03/26 09:14:46;;;;;;;2.90;1.00;;;;;;;19.65;100.00;98597.53;5033891;28;20040;-70
2023/03/26 09:17:33;;;;;;;2.35;0.98;;;;;;;19.67;100.00;98660.94;5032552;28;20037;-70
2023/03/26 09:20:35;;;;;;;1.83;1.00;;;;;;;19.74;100.00;98707.66;5033783;28;20458;-71
2023/03/26 09:23:31;;;;;;;3.70;0.93;;;;;;;19.64;100.00;98813.38;5032317;28;20467;-70
2023/03/26 09:26:02;;;;;;;3.20;0.85;;;;;;;19.52;100.00;99000.03;5033250;28;20045;-70
2023/03/26 09:28:51;;;;;;;1.83;0.90;;;;;;;19.30;100.00;99161.63;5033749;28;20068;-70
2023/03/26 09:32:01;;;;;;;2.83;0.90;;;;;;;20.27;100.00;99283.88;5033171;28;20534;-70
2023/03/26 09:34:36;;;;;;;1.88;0.52;;;;;;;19.00;100.00;99370.91;5015314;28;20080;-71
2023/03/26 09:37:20;;;;;;;3.30;0.77;;;;;;;19.68;100.00;99448.41;5033381;28;20091;-70
2023/03/26 09:40:15;;;;;;;3.72;1.20;;;;;;;20.23;100.00;99481.28;5033631;28;20034;-70
2023/03/26 09:42:45;;;;;;;2.10;0.70;;;;;;;20.46;100.00;99503.63;5032726;28;20042;-71
2023/03/26 09:45:16;;;;;;;2.72;0.80;;;;;;;19.92;100.00;99518.03;5033426;28;20416;-70
2023/03/26 09:48:22;;;;;;;2.38;0.80;;;;;;;20.53;100.00;99528.88;5031716;28;20025;-70
2023/03/26 09:51:13;;;;;;;1.30;0.70;;;;;;;19.73;100.00;99552.09;5010904;28;20026;-71
2023/03/26 09:53:51;;;;;;;2.83;0.90;;;;;;;20.02;100.00;99548.22;5027644;28;20026;-69
2023/03/26 09:56:41;;;;;;;1.42;0.80;;;;;;;20.48;100.00;99558.56;5020699;28;20049;-70
2023/03/26 09:59:43;;;;;;;1.30;0.60;;;;;;;19.53;100.00;99556.09;5032960;28;20029;-69
2023/03/26 10:02:27;;;;;;;1.33;0.73;;;;;;;20.49;100.00;99553.28;5033121;28;20029;-70
2023/03/26 10:04:58;;;;;;;2.05;0.88;;;;;;;20.19;100.00;99552.16;5030032;28;20029;-69
2023/03/26 10:07:34;;;;;;;1.52;0.70;;;;;;;20.68;100.00;99558.69;5031417;28;20049;-71
2023/03/26 10:09:59;;;;;;;2.33;0.88;;;;;;;20.55;100.00;99560.56;5032566;28;20056;-72
2023/03/26 10:12:38;;;;;;;4.72;0.85;;;;;;;20.13;100.00;99514.69;5032767;28;20026;-71
2023/03/26 10:15:25;;;;;;;3.42;0.90;;;;;;;20.22;100.00;99521.78;5032802;28;20068;-71
2023/03/26 10:18:20;;;;;;;2.25;0.70;;;;;;;21.10;100.00;99557.19;5032588;28;20025;-69
2023/03/26 10:20:51;;;;;;;3.00;0.77;;;;;;;21.07;100.00;99562.59;5037647;28;20034;-71
2023/03/26 10:23:33;;;;;;;1.30;0.75;;;;;;;21.38;100.00;99522.19;5050938;28;20041;-71
2023/03/26 10:26:29;;;;;;;1.40;0.73;;;;;;;20.47;100.00;99537.06;5030864;28;20032;-69
2023/03/26 10:28:58;;;;;;;1.65;1.00;;;;;;;21.32;100.00;99571.84;5032464;28;20030;-70
2023/03/26 10:31:46;;;;;;;1.35;1.02;;;;;;;21.00;100.00;99579.47;5037632;28;20025;-71
2023/03/26 10:34:26;;;;;;;1.75;0.88;;;;;;;20.82;100.00;99559.41;5042519;28;20029;-73
2023/03/26 10:37:29;;;;;;;3.88;0.88;;;;;;;21.66;100.00;99557.88;5052435;28;20029;-71
2023/03/26 10:40:22;;;;;;;2.03;1.15;;;;;;;21.10;100.00;99571.84;5043600;28;20029;-70
2023/03/26 10:43:16;;;;;;;2.58;0.90;;;;;;;22.03;100.00;99551.38;5049287;28;20090;-70
2023/03/26 10:46:24;;;;;;;1.63;0.85;;;;;;;21.09;100.00;99552.97;5051979;28;20039;-69
2023/03/26 10:48:59;;;;;;;0.90;0.68;;;;;;;21.16;96.83;99568.81;5050401;28;20067;-71
2023/03/26 10:51:34;;;;;;;2.72;0.68;;;;;;;20.65;96.93;99564.09;5050321;28;20506;-71
2023/03/26 10:54:25;;;;;;;1.70;0.60;;;;;;;20.76;92.61;99515.94;5039656;28;20029;-70
2023/03/26 10:56:51;;;;;;;0.90;0.47;;;;;;;20.96;93.90;99507.44;5051461;28;20028;-70
2023/03/26 10:59:18;;;;;;;2.05;0.50;;;;;;;20.89;90.07;99558.81;5047973;28;20041;-70
2023/03/26 11:02:25;;;;;;;0.85;0.60;;;;;;;21.52;88.39;99537.44;5032124;28;20464;-70
2023/03/26 11:05:18;;;;;;;0.73;0.40;;;;;;;21.35;89.90;99468.94;5042801;28;20059;-69
2023/03/26 11:08:03;;;;;;;0.73;0.55;;;;;;;21.32;90.30;99536.44;5049066;28;20095;-69
2023/03/26 11:10:52;;;;;;;1.75;0.50;;;;;;;21.32;89.46;99533.03;5041442;28;20029;-69
2023/03/26 11:13:45;;;;;;;2.20;0.90;;;;;;;22.39;89.94;99530.22;5031090;28;20503;-67
2023/03/26 11:16:13;;;;;;;1.83;0.52;;;;;;;21.10;84.35;99528.72;5031355;28;20037;-69
2023/03/26 11:18:50;;;;;;;1.20;0.60;;;;;;;21.01;81.13;99479.50;5029585;28;20143;-69
2023/03/26 11:21:21;;;;;;;2.10;0.50;;;;;;;20.69;80.60;99520.75;5037896;28;20480;-71
2023/03/26 11:24:07;;;;;;;1.70;0.73;;;;;;;21.11;78.84;99516.63;5040494;28;20515;-68
2023/03/26 11:26:42;;;;;;;1.23;0.60;;;;;;;21.73;79.74;99511.63;5046936;28;20033;-69
2023/03/26 11:29:49;;;;;;;1.25;0.50;;;;;;;20.92;77.49;99542.25;5047570;28;20123;-69
2023/03/26 11:32:50;;;;;;;2.45;0.65;;;;;;;21.42;76.72;99534.78;5036357;28;20037;-68
2023/03/26 11:35:33;;;;;;;1.73;0.80;;;;;;;21.36;75.38;99531.84;5043809;28;20037;-69
2023/03/26 11:38:14;;;;;;;0.73;0.50;;;;;;;21.19;77.67;99467.72;5029456;28;20083;-69
2023/03/26 11:40:49;;;;;;;4.67;1.20;;;;;;;21.15;75.64;99493.00;5029810;28;20037;-69
2023/03/26 11:43:19;;;;;;;0.73;0.38;;;;;;;21.35;74.19;99497.41;5027986;28;20244;-69
2023/03/26 11:45:48;;;;;;;2.03;0.82;;;;;;;22.16;74.47;99512.34;5029488;28;20091;-69
2023/03/26 11:48:20;;;;;;;1.75;0.60;;;;;;;21.93;73.55;99487.53;5030027;28;20021;-69
2023/03/26 11:50:50;;;;;;;1.70;0.73;;;;;;;21.79;72.05;99488.63;5028426;28;20030;-69
2023/03/26 11:53:18;;;;;;;1.52;0.50;;;;;;;21.90;73.12;99461.91;5029358;28;20031;-69